FC2ブログ

11/22のツイートまとめ

uuban_gya

RT @DividedSelf_94: 高校入試、国語のテストで「お父さんから腕時計を貰った。腕にはめたら、ほのかに暖かかった」という描写から、暖かかった理由を問われて①お父さんの心がこもってたから②さっきまでお父さんが腕に巻いてたからの二択で「②だろ常識的に考えて……
11-22 12:52

RT @narusemanami: 待ってwwww清野さんこれwwww作中で宣言してたとかwwwwww#清野とおる https://t.co/YCxfZvYsNv
11-22 12:51

RT @JTA_Official_jp: / 中城城跡プロジェクションマッピング✨\ 迫力あるマッピング映像&県内最大規模のレーザーショー✅獅子舞やエイサーなど伝統芸能がコラボする魅力たっぷりのイベント😍ゲストのMASA MAGICが更にステージを盛り上げます‼️…
11-22 12:38

RT @rjft_metar: RJFT 220229Z VRB05KT 9999 -RA FEW030 SCT050 BKN090 13/11 Q1025 RMK 1CU030 3SC050 6AC090 A3028 VOLCANIC ASH CLOUD E P/RR
11-22 12:37

RT @kkt_televitan: 🍁紅葉情報🍁こちらは熊本地震後、閉館中の旧細川刑部邸✨あす23日(土)から限定で紅葉が楽しめるとよ~一足先に外から見たけど黄金色のイチョウは見ごたえがあるたん♪庭園はライトアップもあるよ(^^)!#KKT #テレビたん #ぬい撮…
11-22 12:31

CALENDER
10 | 2019/11 | 12
- - - - - 1 2
3 4 5 6 7 8 9
10 11 12 13 14 15 16
17 18 19 20 21 22 23
24 25 26 27 28 29 30
COUNTER
TWITTER
たまにつぶやいている
RECENT・・・
PROFILE

あこちん

Author:あこちん
FC2プロフ作ってみました。こちらをクリック!
・火の国在住
・似ている人=金太郎
・釣りが好きなナマケモノ。某釣り船サイトの管理人。
・下手っぴーだがGOLFに手を出し…そして諦めた。
・休日はドライブ/温泉/うまいものなどの探求。
・PCは林檎使い歴23年ほど。はじめの一歩はMacintosh LC575。現在はiMacの27inch。
・'10.06末に窓PCを手に入れたが、こちら方面のことはちょびっとしかわかりましぇん。
・最近は主にミラーレス一眼DMC GX1とズームレンズ、それとあくおす・ぽんを使って撮影している。
・ヒコーキとか空とか草花とか、浅く広く多趣味。
・日々の日記を綴りながら、その時に聞いている曲や頭の中に浮かんできた曲が「本日のBGM」。クリックしても曲が流れ出す訳ではないのでご注意下され。(マジでクリックする人がいるそうな…)

  • 管理者ページ
  • CATEGORY
    お勧め書籍&CD&etc…












    LINKS
    時々覗き込んでいるBlogなど…
    SEACH THIS SITE..
    RECENT ENTRIES
    RECENT COMMENTS
    ARCHIVES
    RECENT TRACKBACKS
    RSS FEED
    QRコード
    QR